createdAt,value
2023-04-29T00:04:17.367Z,3.72
2023-04-29T00:09:25.989Z,3.78
2023-04-29T00:14:33.641Z,3.85
2023-04-29T00:19:41.608Z,3.91
2023-04-29T00:24:49.277Z,3.98
2023-04-29T00:29:57.549Z,4.05
2023-04-29T00:35:06.425Z,4.13
2023-04-29T00:40:15.714Z,4.22
2023-04-29T00:45:24.237Z,4.31
2023-04-29T00:50:32.611Z,4.40
2023-04-29T00:55:41.150Z,4.48
2023-04-29T01:00:50.019Z,4.56
2023-04-29T01:06:07.573Z,4.63
2023-04-29T01:11:18.020Z,4.68
2023-04-29T01:16:33.292Z,4.73
2023-04-29T01:21:51.360Z,4.77
2023-04-29T01:27:06.044Z,4.81
2023-04-29T01:32:33.340Z,4.84
2023-04-29T01:37:51.517Z,4.87
2023-04-29T01:43:04.959Z,4.89
2023-04-29T01:48:14.778Z,4.93
2023-04-29T01:53:23.316Z,4.95
2023-04-29T01:58:32.357Z,4.98
2023-04-29T02:04:00.326Z,5.01
2023-04-29T02:09:08.287Z,5.02
2023-04-29T02:14:17.871Z,5.04
2023-04-29T02:19:27.699Z,5.04
2023-04-29T02:24:37.290Z,5.03
2023-04-29T02:29:45.564Z,5.02
2023-04-29T02:34:54.073Z,4.99
2023-04-29T02:40:02.999Z,4.97
2023-04-29T02:45:13.908Z,4.94
2023-04-29T02:50:22.408Z,4.91
2023-04-29T02:55:31.213Z,4.87
2023-04-29T03:00:44.279Z,4.83
2023-04-29T03:05:51.502Z,4.80
2023-04-29T03:10:59.627Z,4.76
2023-04-29T03:16:08.985Z,4.72
2023-04-29T03:21:18.039Z,4.69
2023-04-29T03:26:26.679Z,4.66
2023-04-29T03:31:35.681Z,4.76
2023-04-29T03:36:42.961Z,5.06
2023-04-29T03:41:52.523Z,5.23
2023-04-29T03:47:01.339Z,5.34
2023-04-29T03:52:09.533Z,5.40
2023-04-29T03:57:18.106Z,5.51
2023-04-29T04:02:27.049Z,5.61
2023-04-29T04:07:35.549Z,5.72
2023-04-29T04:13:13.644Z,5.85
2023-04-29T04:18:21.301Z,5.97
2023-04-29T04:23:29.222Z,6.06
2023-04-29T04:28:38.018Z,6.17
2023-04-29T04:34:02.710Z,6.28
2023-04-29T04:39:12.007Z,6.38
2023-04-29T04:44:20.394Z,6.48
2023-04-29T04:49:37.496Z,6.59
2023-04-29T04:54:48.715Z,6.70
2023-04-29T04:59:59.593Z,6.82
2023-04-29T05:05:09.021Z,6.93
2023-04-29T05:10:18.257Z,7.06
2023-04-29T05:15:30.010Z,7.21
2023-04-29T05:20:40.439Z,7.36
2023-04-29T05:25:48.188Z,7.53
2023-04-29T05:30:58.170Z,7.72
2023-04-29T05:36:07.125Z,7.94
2023-04-29T05:41:15.821Z,8.16
2023-04-29T05:46:37.579Z,8.40
2023-04-29T05:51:45.971Z,8.64
2023-04-29T05:56:54.446Z,8.87
2023-04-29T06:02:02.916Z,9.08
2023-04-29T06:07:13.197Z,9.27
2023-04-29T06:12:39.250Z,9.49
2023-04-29T06:17:46.644Z,9.71
2023-04-29T06:22:55.323Z,9.99
2023-04-29T06:28:08.884Z,10.30
2023-04-29T06:33:21.410Z,10.65
2023-04-29T06:38:30.805Z,10.88
2023-04-29T06:43:58.316Z,10.88
2023-04-29T06:49:38.345Z,11.04
2023-04-29T06:54:47.404Z,11.24
2023-04-29T06:59:56.196Z,11.45
2023-04-29T07:05:06.834Z,11.68
2023-04-29T07:10:15.670Z,11.91
2023-04-29T07:15:23.971Z,12.16
2023-04-29T07:20:32.021Z,12.40
2023-04-29T07:25:40.856Z,12.64
2023-04-29T07:30:50.390Z,12.86
2023-04-29T07:35:59.243Z,13.09
2023-04-29T07:41:08.027Z,13.30
2023-04-29T07:46:16.764Z,13.50
2023-04-29T07:51:25.799Z,13.68
2023-04-29T07:56:35.280Z,13.87
2023-04-29T08:01:44.144Z,14.05
2023-04-29T08:06:53.890Z,14.21
2023-04-29T08:12:02.203Z,14.38
2023-04-29T08:17:10.352Z,14.55
2023-04-29T08:22:18.579Z,14.74
2023-04-29T08:27:26.471Z,14.93
2023-04-29T08:32:35.658Z,15.07
2023-04-29T08:37:43.539Z,15.20
2023-04-29T08:42:52.433Z,15.30
2023-04-29T08:48:03.141Z,15.38
2023-04-29T08:53:11.813Z,15.44
2023-04-29T08:58:21.228Z,15.46
2023-04-29T09:03:33.741Z,15.46
2023-04-29T09:08:42.558Z,15.47
2023-04-29T09:13:50.531Z,15.49
2023-04-29T09:18:58.848Z,15.54
2023-04-29T09:24:08.077Z,15.60
2023-04-29T09:29:16.696Z,15.68
2023-04-29T09:34:36.196Z,15.74
2023-04-29T09:39:44.006Z,15.83
2023-04-29T09:44:52.696Z,15.93
2023-04-29T09:50:16.798Z,16.02
2023-04-29T09:55:24.369Z,16.11
2023-04-29T10:00:35.935Z,16.19
2023-04-29T10:05:44.377Z,16.29
2023-04-29T10:10:58.223Z,16.38
2023-04-29T10:16:17.720Z,16.46
2023-04-29T10:21:30.370Z,16.53
2023-04-29T10:26:41.299Z,16.61
2023-04-29T10:31:51.046Z,16.69
2023-04-29T10:36:59.648Z,16.74
2023-04-29T10:42:18.196Z,16.78
2023-04-29T10:47:26.402Z,16.82
2023-04-29T10:52:53.484Z,16.88
2023-04-29T10:58:01.301Z,16.93
2023-04-29T11:03:10.988Z,16.98
2023-04-29T11:08:24.634Z,17.04
2023-04-29T11:13:34.439Z,17.09
2023-04-29T11:19:08.734Z,17.15
2023-04-29T11:24:19.929Z,17.23
2023-04-29T11:29:28.485Z,17.32
2023-04-29T11:34:36.108Z,17.41
2023-04-29T11:39:43.945Z,17.48
2023-04-29T11:44:53.473Z,17.54
2023-04-29T11:50:10.135Z,17.63
2023-04-29T11:55:18.004Z,17.69
2023-04-29T12:00:26.424Z,17.73
2023-04-29T12:05:34.489Z,17.77
2023-04-29T12:10:42.494Z,17.83
2023-04-29T12:15:50.867Z,17.90
2023-04-29T12:20:59.205Z,17.99
2023-04-29T12:26:08.528Z,18.05
2023-04-29T12:31:18.794Z,18.11
2023-04-29T12:36:27.570Z,18.17
2023-04-29T12:41:45.157Z,18.22
2023-04-29T12:46:54.211Z,18.28
2023-04-29T12:52:03.241Z,18.36
2023-04-29T12:57:11.456Z,18.47
2023-04-29T13:02:19.833Z,18.56
2023-04-29T13:07:27.509Z,18.61
2023-04-29T13:12:34.865Z,18.64
2023-04-29T13:17:42.457Z,18.64
2023-04-29T13:22:50.694Z,18.61
2023-04-29T13:27:58.856Z,18.58
2023-04-29T13:33:12.421Z,18.57
2023-04-29T13:38:21.042Z,18.56
2023-04-29T13:43:37.546Z,18.56
2023-04-29T13:54:48.388Z,18.57
2023-04-29T14:04:34.525Z,18.56
2023-04-29T14:09:42.071Z,18.56
2023-04-29T14:14:49.928Z,18.55
2023-04-29T14:19:57.791Z,18.54
2023-04-29T14:25:05.952Z,18.52
2023-04-29T14:30:15.277Z,18.49
2023-04-29T14:35:23.540Z,18.46
2023-04-29T14:40:31.646Z,18.45
2023-04-29T14:45:39.475Z,18.43
2023-04-29T14:50:47.222Z,18.41
2023-04-29T14:55:55.050Z,18.38
2023-04-29T15:01:03.107Z,18.36
2023-04-29T15:06:10.910Z,18.33
2023-04-29T15:11:18.556Z,18.30
2023-04-29T15:16:26.088Z,18.26
2023-04-29T15:21:34.868Z,18.22
2023-04-29T15:26:42.747Z,18.17
2023-04-29T15:31:50.267Z,18.12
2023-04-29T15:36:57.888Z,18.07
2023-04-29T15:42:05.379Z,18.03
2023-04-29T15:47:13.535Z,18.00
2023-04-29T15:52:21.149Z,17.96
2023-04-29T15:57:28.833Z,17.93
2023-04-29T16:02:36.392Z,17.90
2023-04-29T16:07:43.869Z,17.87
2023-04-29T16:12:51.298Z,17.85
2023-04-29T16:18:00.222Z,17.82
2023-04-29T16:23:07.784Z,17.79
2023-04-29T16:28:15.142Z,17.75
2023-04-29T16:33:22.632Z,17.72
2023-04-29T16:38:31.250Z,17.68
2023-04-29T16:43:38.708Z,17.63
2023-04-29T16:48:46.372Z,17.60
2023-04-29T16:53:55.205Z,17.55
2023-04-29T16:59:02.646Z,17.52
2023-04-29T17:04:10.827Z,17.47
2023-04-29T17:09:18.669Z,17.43
2023-04-29T17:14:26.779Z,17.38
2023-04-29T17:19:34.987Z,17.33
2023-04-29T17:24:45.390Z,17.27
2023-04-29T17:29:54.025Z,17.21
2023-04-29T17:35:02.757Z,17.15
2023-04-29T17:40:12.253Z,17.08
2023-04-29T17:45:20.147Z,17.02
2023-04-29T17:50:28.497Z,16.97
2023-04-29T17:55:36.395Z,16.90
2023-04-29T18:00:43.861Z,16.85
2023-04-29T18:05:51.510Z,16.78
2023-04-29T18:10:59.178Z,16.72
2023-04-29T18:16:07.710Z,16.66
2023-04-29T18:21:21.471Z,16.60
2023-04-29T18:26:30.331Z,16.54
2023-04-29T18:31:37.850Z,16.49
2023-04-29T18:36:45.622Z,16.44
2023-04-29T18:41:53.750Z,16.39
2023-04-29T18:47:01.257Z,16.34
2023-04-29T18:52:09.243Z,16.29
2023-04-29T18:57:17.160Z,16.23
2023-04-29T19:02:25.088Z,16.18
2023-04-29T19:07:33.153Z,16.12
2023-04-29T19:12:40.517Z,16.07
2023-04-29T19:17:48.395Z,16.02
2023-04-29T19:22:57.512Z,15.97
2023-04-29T19:28:04.841Z,15.91
2023-04-29T19:33:12.810Z,15.86
2023-04-29T19:38:20.938Z,15.81
2023-04-29T19:43:28.328Z,15.76
2023-04-29T19:48:36.146Z,15.72
2023-04-29T19:53:44.507Z,15.66
2023-04-29T19:58:52.413Z,15.63
2023-04-29T20:04:00.590Z,15.58
2023-04-29T20:09:09.911Z,15.55
2023-04-29T20:14:17.276Z,15.51
2023-04-29T20:19:24.855Z,15.47
2023-04-29T20:24:32.396Z,15.43
2023-04-29T20:29:40.007Z,15.40
2023-04-29T20:34:47.493Z,15.34
2023-04-29T20:39:55.215Z,15.30
2023-04-29T20:45:03.573Z,15.25
2023-04-29T20:50:12.583Z,15.19
2023-04-29T20:55:20.273Z,15.13
2023-04-29T21:00:27.643Z,15.08
2023-04-29T21:05:35.236Z,15.02
2023-04-29T21:10:42.981Z,14.96
2023-04-29T21:15:50.750Z,14.91
2023-04-29T21:20:58.398Z,14.86
2023-04-29T21:26:06.429Z,14.82
2023-04-29T21:31:16.693Z,14.77
2023-04-29T21:36:24.333Z,14.73
2023-04-29T21:41:35.127Z,14.69
2023-04-29T21:46:43.108Z,14.66
2023-04-29T21:51:51.298Z,14.63
2023-04-29T21:56:58.876Z,14.61
2023-04-29T22:02:15.399Z,14.58
2023-04-29T22:07:24.405Z,14.55
2023-04-29T22:12:31.827Z,14.51
2023-04-29T22:17:39.499Z,14.48
2023-04-29T22:22:46.862Z,14.45
2023-04-29T22:27:54.517Z,14.41
2023-04-29T22:33:02.199Z,14.37
2023-04-29T22:38:10.062Z,14.32
2023-04-29T22:43:17.659Z,14.26
2023-04-29T22:48:27.659Z,14.20
2023-04-29T22:53:35.664Z,14.14
2023-04-29T22:58:43.439Z,14.09
2023-04-29T23:03:51.024Z,14.04
2023-04-29T23:08:58.458Z,13.98
2023-04-29T23:14:06.153Z,13.92
2023-04-29T23:19:13.497Z,13.87
2023-04-29T23:24:20.937Z,13.82
2023-04-29T23:29:28.397Z,13.77
2023-04-29T23:34:35.977Z,13.71
2023-04-29T23:39:43.429Z,13.65
2023-04-29T23:44:51.322Z,13.59
2023-04-29T23:49:58.995Z,13.53
2023-04-29T23:55:07.331Z,13.47
